createdAt,value
2022-08-26T00:01:37.487Z,101140.47
2022-08-26T00:04:03.767Z,101145.09
2022-08-26T00:06:30.739Z,101138.94
2022-08-26T00:08:57.516Z,101137.22
2022-08-26T00:11:26.810Z,101131.91
2022-08-26T00:13:53.461Z,101132.41
2022-08-26T00:16:19.835Z,101141.00
2022-08-26T00:18:46.281Z,101135.81
2022-08-26T00:21:12.602Z,101144.22
2022-08-26T00:23:39.387Z,101138.91
2022-08-26T00:26:06.474Z,101137.19
2022-08-26T00:28:34.838Z,101136.34
2022-08-26T00:31:01.194Z,101134.63
2022-08-26T00:33:27.523Z,101136.53
2022-08-26T00:35:53.863Z,101133.28
2022-08-26T00:38:20.339Z,101130.66
2022-08-26T00:40:46.796Z,101130.00
2022-08-26T00:43:13.102Z,101130.16
2022-08-26T00:45:41.533Z,101126.56
2022-08-26T00:48:08.957Z,101121.25
2022-08-26T00:50:35.371Z,101121.41
2022-08-26T00:53:01.634Z,101124.50
2022-08-26T00:55:37.845Z,101129.97
2022-08-26T00:58:04.365Z,101122.09
2022-08-26T01:00:30.675Z,101129.66
2022-08-26T01:02:57.589Z,101126.19
2022-08-26T01:05:24.172Z,101116.94
2022-08-26T01:07:50.441Z,101120.88
2022-08-26T01:10:16.795Z,101121.94
2022-08-26T01:12:43.069Z,101119.34
2022-08-26T01:15:09.452Z,101122.06
2022-08-26T01:17:36.353Z,101118.66
2022-08-26T01:20:02.739Z,101121.41
2022-08-26T01:22:29.293Z,101121.56
2022-08-26T01:24:55.848Z,101123.47
2022-08-26T01:27:22.461Z,101124.50
2022-08-26T01:29:49.682Z,101119.16
2022-08-26T01:32:15.942Z,101123.78
2022-08-26T01:34:42.200Z,101123.78
2022-08-26T01:37:08.497Z,101121.38
2022-08-26T01:39:40.315Z,101117.78
2022-08-26T01:42:10.443Z,101117.03
2022-08-26T01:44:36.904Z,101110.22
2022-08-26T01:47:03.373Z,101115.00
2022-08-26T01:49:32.872Z,101109.50
2022-08-26T01:52:00.732Z,101108.81
2022-08-26T01:54:27.039Z,101110.69
2022-08-26T01:56:53.426Z,101112.59
2022-08-26T01:59:19.745Z,101110.00
2022-08-26T02:01:46.726Z,101111.91
2022-08-26T02:04:13.354Z,101112.94
2022-08-26T02:06:39.656Z,101109.66
2022-08-26T02:09:06.164Z,101113.59
2022-08-26T02:11:32.674Z,101108.97
2022-08-26T02:13:59.037Z,101117.03
2022-08-26T02:16:25.447Z,101108.97
2022-08-26T02:18:53.325Z,101113.75
2022-08-26T02:21:19.742Z,101118.56
2022-08-26T02:23:50.534Z,101108.59
2022-08-26T02:26:18.050Z,101102.28
2022-08-26T02:28:45.799Z,101100.72
2022-08-26T02:31:12.578Z,101112.56
2022-08-26T02:33:43.166Z,101109.09
2022-08-26T02:36:09.651Z,101110.84
2022-08-26T02:38:38.642Z,101106.53
2022-08-26T02:41:06.176Z,101109.28
2022-08-26T02:43:34.451Z,101109.94
2022-08-26T02:46:02.152Z,101113.56
2022-08-26T02:48:29.062Z,101105.19
2022-08-26T02:50:55.378Z,101104.16
2022-08-26T02:53:25.250Z,101102.28
2022-08-26T02:55:52.021Z,101096.78
2022-08-26T02:58:18.349Z,101096.78
2022-08-26T03:00:53.321Z,101093.19
2022-08-26T03:03:20.026Z,101090.63
2022-08-26T03:05:48.939Z,101095.41
2022-08-26T03:08:15.413Z,101089.91
2022-08-26T03:10:41.897Z,101091.81
2022-08-26T03:13:08.374Z,101091.09
2022-08-26T03:15:34.939Z,101087.50
2022-08-26T03:18:01.303Z,101096.75
2022-08-26T03:20:27.712Z,101089.72
2022-08-26T03:22:53.992Z,101081.66
2022-08-26T03:25:22.537Z,101082.69
2022-08-26T03:27:50.135Z,101082.00
2022-08-26T03:30:16.456Z,101074.97
2022-08-26T03:32:42.928Z,101074.09
2022-08-26T03:35:09.297Z,101076.84
2022-08-26T03:37:35.747Z,101083.34
2022-08-26T03:40:02.352Z,101073.44
2022-08-26T03:42:28.712Z,101071.00
2022-08-26T03:44:55.113Z,101079.22
2022-08-26T03:47:21.467Z,101077.53
2022-08-26T03:49:47.789Z,101077.69
2022-08-26T03:52:14.217Z,101072.69
2022-08-26T03:54:40.550Z,101076.47
2022-08-26T03:57:09.827Z,101081.06
2022-08-26T03:59:36.156Z,101073.03
2022-08-26T04:02:03.291Z,101075.75
2022-08-26T04:04:34.968Z,101077.66
2022-08-26T04:07:01.268Z,101069.59
2022-08-26T04:09:27.747Z,101079.00
2022-08-26T04:11:54.059Z,101074.53
2022-08-26T04:14:20.415Z,101074.72
2022-08-26T04:16:46.725Z,101076.94
2022-08-26T04:19:13.314Z,101080.69
2022-08-26T04:21:39.604Z,101077.94
2022-08-26T04:24:09.222Z,101082.59
2022-08-26T04:26:39.356Z,101074.53
2022-08-26T04:29:08.919Z,101071.63
2022-08-26T04:31:35.250Z,101071.47
2022-08-26T04:34:01.619Z,101077.63
2022-08-26T04:36:27.841Z,101082.09
2022-08-26T04:38:55.528Z,101076.44
2022-08-26T04:41:21.769Z,101076.97
2022-08-26T04:43:48.007Z,101069.59
2022-08-26T04:46:14.367Z,101074.91
2022-08-26T04:48:40.762Z,101076.47
2022-08-26T04:51:07.414Z,101073.56
2022-08-26T04:53:34.141Z,101075.97
2022-08-26T04:56:00.777Z,101073.06
2022-08-26T04:58:27.013Z,101072.88
2022-08-26T05:00:53.283Z,101065.50
2022-08-26T05:03:20.032Z,101068.81
2022-08-26T05:05:46.272Z,101071.19
2022-08-26T05:08:12.572Z,101075.31
2022-08-26T05:10:38.968Z,101070.38
2022-08-26T05:13:11.149Z,101075.53
2022-08-26T05:15:38.451Z,101080.50
2022-08-26T05:18:04.717Z,101081.88
2022-08-26T05:20:30.944Z,101080.53
2022-08-26T05:22:57.177Z,101085.66
2022-08-26T05:25:23.544Z,101095.28
2022-08-26T05:27:53.618Z,101088.75
2022-08-26T05:30:19.918Z,101089.28
2022-08-26T05:32:46.166Z,101087.94
2022-08-26T05:35:12.402Z,101092.94
2022-08-26T05:37:38.625Z,101093.44
2022-08-26T05:40:05.002Z,101091.22
2022-08-26T05:42:31.306Z,101100.13
2022-08-26T05:44:57.639Z,101094.16
2022-08-26T05:47:24.444Z,101096.38
2022-08-26T05:49:51.674Z,101087.63
2022-08-26T05:52:18.139Z,101093.66
2022-08-26T05:54:45.125Z,101096.03
2022-08-26T05:57:14.009Z,101095.69
2022-08-26T05:59:40.227Z,101084.38
2022-08-26T06:02:08.194Z,101090.38
2022-08-26T06:04:35.013Z,101083.00
2022-08-26T06:07:01.344Z,101081.81
2022-08-26T06:09:27.858Z,101088.66
2022-08-26T06:11:54.133Z,101090.88
2022-08-26T06:14:20.377Z,101092.09
2022-08-26T06:16:46.594Z,101084.34
2022-08-26T06:19:12.819Z,101096.34
2022-08-26T06:21:39.043Z,101091.88
2022-08-26T06:24:05.270Z,101091.03
2022-08-26T06:26:31.535Z,101075.59
2022-08-26T06:28:57.828Z,101083.97
2022-08-26T06:31:24.086Z,101077.25
2022-08-26T06:33:50.541Z,101077.22
2022-08-26T06:36:16.759Z,101087.97
2022-08-26T06:38:44.891Z,101080.59
2022-08-26T06:41:11.107Z,101077.97
2022-08-26T06:43:37.335Z,101079.66
2022-08-26T06:46:04.264Z,101071.34
2022-08-26T06:48:31.303Z,101077.50
2022-08-26T06:50:57.624Z,101070.91
2022-08-26T06:53:24.579Z,101069.81
2022-08-26T06:55:51.882Z,101072.31
2022-08-26T06:58:18.209Z,101075.22
2022-08-26T07:00:47.240Z,101072.41
2022-08-26T07:03:14.042Z,101075.06
2022-08-26T07:05:40.383Z,101067.59
2022-08-26T07:08:06.633Z,101066.69
2022-08-26T07:10:32.916Z,101052.84
2022-08-26T07:12:59.295Z,101057.63
2022-08-26T07:15:31.037Z,101060.50
2022-08-26T07:17:57.867Z,101053.22
2022-08-26T07:20:24.282Z,101059.69
2022-08-26T07:22:51.509Z,101058.91
2022-08-26T07:25:17.889Z,101057.13
2022-08-26T07:27:45.994Z,101053.41
2022-08-26T07:30:20.396Z,101056.06
2022-08-26T07:32:46.654Z,101051.88
2022-08-26T07:35:13.030Z,101049.88
2022-08-26T07:37:39.571Z,101047.22
2022-08-26T07:40:05.996Z,101048.16
2022-08-26T07:42:33.422Z,101041.69
2022-08-26T07:45:01.087Z,101049.00
2022-08-26T07:47:27.457Z,101046.34
2022-08-26T07:49:53.736Z,101039.84
2022-08-26T07:52:25.992Z,101043.06
2022-08-26T07:54:53.274Z,101042.28
2022-08-26T07:57:19.620Z,101041.31
2022-08-26T07:59:47.439Z,101042.91
2022-08-26T08:02:13.744Z,101041.91
2022-08-26T08:04:40.036Z,101037.78
2022-08-26T08:07:07.421Z,101040.63
2022-08-26T08:09:37.946Z,101027.75
2022-08-26T08:12:07.075Z,101023.97
2022-08-26T08:14:33.499Z,101022.13
2022-08-26T08:16:59.839Z,101025.78
2022-08-26T08:19:33.086Z,101026.69
2022-08-26T08:22:04.389Z,101026.56
2022-08-26T08:24:43.403Z,101018.28
2022-08-26T08:27:10.328Z,101015.59
2022-08-26T08:29:36.817Z,101011.38
2022-08-26T08:32:03.290Z,101014.56
2022-08-26T08:34:30.620Z,101017.59
2022-08-26T08:36:57.127Z,101003.59
2022-08-26T08:39:23.822Z,101007.66
2022-08-26T08:41:50.048Z,101002.59
2022-08-26T08:44:17.689Z,101003.22
2022-08-26T08:46:44.243Z,100995.78
2022-08-26T08:49:10.593Z,100987.53
2022-08-26T08:51:36.965Z,100990.13
2022-08-26T08:54:03.673Z,100996.94
2022-08-26T08:56:30.477Z,100993.59
2022-08-26T08:58:56.952Z,100984.06
2022-08-26T09:01:23.306Z,100986.22
2022-08-26T09:03:49.564Z,100976.03
2022-08-26T09:06:15.793Z,100988.19
2022-08-26T09:08:42.702Z,100986.94
2022-08-26T09:11:08.957Z,100986.53
2022-08-26T09:13:35.919Z,100978.00
2022-08-26T09:16:02.146Z,100973.31
2022-08-26T09:18:28.392Z,100969.72
2022-08-26T09:20:54.619Z,100970.56
2022-08-26T09:23:20.869Z,100968.47
2022-08-26T09:25:47.117Z,100965.69
2022-08-26T09:28:13.893Z,100963.13
2022-08-26T09:30:41.979Z,100971.00
2022-08-26T09:33:11.195Z,100969.28
2022-08-26T09:35:37.635Z,100969.28
2022-08-26T09:38:05.442Z,100966.69
2022-08-26T09:40:35.452Z,100967.13
2022-08-26T09:43:02.149Z,100962.19
2022-08-26T09:45:30.413Z,100962.41
2022-08-26T09:47:56.725Z,100951.94
2022-08-26T09:50:29.118Z,100953.44
2022-08-26T09:52:55.667Z,100946.84
2022-08-26T09:55:21.957Z,100948.06
2022-08-26T09:57:48.328Z,100937.41
2022-08-26T10:00:14.661Z,100938.25
2022-08-26T10:02:41.066Z,100940.38
2022-08-26T10:05:13.874Z,100934.38
2022-08-26T10:07:40.176Z,100930.97
2022-08-26T10:10:06.633Z,100923.50
2022-08-26T10:12:32.964Z,100924.75
2022-08-26T10:14:59.895Z,100904.06
2022-08-26T10:17:26.726Z,100898.91
2022-08-26T10:19:57.590Z,100896.56
2022-08-26T10:22:24.236Z,100884.34
2022-08-26T10:24:54.499Z,100882.00
2022-08-26T10:27:21.393Z,100877.25
2022-08-26T10:29:47.719Z,100875.28
2022-08-26T10:32:14.095Z,100878.03
2022-08-26T10:34:40.751Z,100868.16
2022-08-26T10:37:13.696Z,100861.06
2022-08-26T10:39:41.540Z,100856.34
2022-08-26T10:42:07.868Z,100852.47
2022-08-26T10:44:37.188Z,100846.22
2022-08-26T10:47:03.451Z,100849.38
2022-08-26T10:49:31.585Z,100851.88
2022-08-26T10:51:58.428Z,100854.59
2022-08-26T10:54:24.884Z,100850.81
2022-08-26T10:56:51.564Z,100848.72
2022-08-26T10:59:19.061Z,100833.88
2022-08-26T11:01:47.094Z,100830.78
2022-08-26T11:04:17.200Z,100828.22
2022-08-26T11:06:43.688Z,100817.88
2022-08-26T11:09:10.036Z,100815.81
2022-08-26T11:11:36.364Z,100817.41
2022-08-26T11:14:02.807Z,100809.97
2022-08-26T11:16:29.170Z,100807.03
2022-08-26T11:18:55.640Z,100815.16
2022-08-26T11:21:22.280Z,100817.53
2022-08-26T11:23:55.085Z,100811.56
2022-08-26T11:26:35.970Z,100811.19
2022-08-26T11:29:13.449Z,100806.06
2022-08-26T11:31:40.183Z,100800.31
2022-08-26T11:34:06.597Z,100795.00
2022-08-26T11:36:33.045Z,100790.97
2022-08-26T11:39:00.053Z,100803.22
2022-08-26T11:41:26.360Z,100814.63
2022-08-26T11:43:52.798Z,100811.28
2022-08-26T11:46:19.375Z,100815.69
2022-08-26T11:48:45.736Z,100824.28
2022-08-26T11:51:12.161Z,100836.22
2022-08-26T11:53:39.829Z,100835.06
2022-08-26T11:56:06.074Z,100847.09
2022-08-26T11:58:32.389Z,100848.72
2022-08-26T12:00:58.591Z,100832.09
2022-08-26T12:03:24.926Z,100825.09
2022-08-26T12:05:51.234Z,100834.06
2022-08-26T12:08:17.562Z,100846.75
2022-08-26T12:10:43.833Z,100851.09
2022-08-26T12:13:10.209Z,100838.81
2022-08-26T12:15:36.742Z,100837.75
2022-08-26T12:18:03.020Z,100845.31
2022-08-26T12:20:29.306Z,100835.56
2022-08-26T12:22:55.679Z,100826.31
2022-08-26T12:25:22.171Z,100817.88
2022-08-26T12:27:53.104Z,100821.78
2022-08-26T12:30:20.182Z,100819.16
2022-08-26T12:32:56.649Z,100839.06
2022-08-26T12:35:24.644Z,100862.31
2022-08-26T12:37:51.126Z,100865.41
2022-08-26T12:40:17.758Z,100872.28
2022-08-26T12:42:44.183Z,100883.44
2022-08-26T12:45:10.472Z,100873.69
2022-08-26T12:47:43.343Z,100857.75
2022-08-26T12:50:09.961Z,100864.44
2022-08-26T12:52:36.304Z,100875.78
2022-08-26T12:55:02.833Z,100876.97
2022-08-26T12:57:29.120Z,100900.00
2022-08-26T12:59:55.452Z,100882.84
2022-08-26T13:02:21.802Z,100885.78
2022-08-26T13:04:48.113Z,100894.72
2022-08-26T13:07:14.521Z,100906.53
2022-08-26T13:09:40.900Z,100921.97
2022-08-26T13:12:09.412Z,100941.16
2022-08-26T13:14:35.740Z,100938.63
2022-08-26T13:17:01.959Z,100911.88
2022-08-26T13:19:28.217Z,100896.28
2022-08-26T13:21:54.692Z,100876.06
2022-08-26T13:24:20.983Z,100882.75
2022-08-26T13:26:47.407Z,100874.69
2022-08-26T13:29:13.764Z,100859.44
2022-08-26T13:31:40.139Z,100844.72
2022-08-26T13:34:06.397Z,100857.91
2022-08-26T13:36:32.673Z,100855.84
2022-08-26T13:38:58.909Z,100855.31
2022-08-26T13:41:29.405Z,100861.34
2022-08-26T13:43:56.215Z,100857.53
2022-08-26T13:46:22.792Z,100861.28
2022-08-26T13:48:49.131Z,100849.81
2022-08-26T13:51:15.353Z,100859.78
2022-08-26T13:53:41.653Z,100845.38
2022-08-26T13:56:11.057Z,100847.25
2022-08-26T13:58:37.519Z,100841.78
2022-08-26T14:01:03.884Z,100839.72
2022-08-26T14:03:30.373Z,100853.94
2022-08-26T14:05:56.864Z,100856.31
2022-08-26T14:08:23.151Z,100868.47
2022-08-26T14:10:49.480Z,100887.00
2022-08-26T14:13:16.088Z,100906.88
2022-08-26T14:15:42.606Z,100919.22
2022-08-26T14:18:08.904Z,100919.59
2022-08-26T14:20:35.231Z,100909.63
2022-08-26T14:23:13.569Z,100904.31
2022-08-26T14:25:40.409Z,100919.75
2022-08-26T14:28:06.750Z,100945.28
2022-08-26T14:30:33.047Z,100943.78
2022-08-26T14:32:59.370Z,100952.00
2022-08-26T14:35:25.645Z,100948.03
2022-08-26T14:37:52.077Z,100946.16
2022-08-26T14:40:18.502Z,100947.91
2022-08-26T14:42:49.529Z,100914.59
2022-08-26T14:45:19.517Z,100911.19
2022-08-26T14:47:46.032Z,100906.91
2022-08-26T14:50:12.409Z,100898.34
2022-08-26T14:52:39.405Z,100884.63
2022-08-26T14:55:05.753Z,100878.31
2022-08-26T14:57:32.048Z,100871.81
2022-08-26T14:59:58.544Z,100859.13
2022-08-26T15:02:32.871Z,100853.97
2022-08-26T15:04:59.953Z,100853.13
2022-08-26T15:07:26.384Z,100847.97
2022-08-26T15:09:52.666Z,100838.88
2022-08-26T15:12:18.898Z,100835.66
2022-08-26T15:14:46.045Z,100840.28
2022-08-26T15:17:12.347Z,100834.09
2022-08-26T15:19:38.836Z,100833.75
2022-08-26T15:22:05.072Z,100836.81
2022-08-26T15:24:31.355Z,100840.63
2022-08-26T15:26:57.705Z,100838.91
2022-08-26T15:29:24.029Z,100849.50
2022-08-26T15:31:50.255Z,100844.38
2022-08-26T15:34:17.284Z,100838.75
2022-08-26T15:36:43.609Z,100845.06
2022-08-26T15:39:09.856Z,100838.56
2022-08-26T15:41:36.209Z,100844.72
2022-08-26T15:44:03.440Z,100835.47
2022-08-26T15:46:29.938Z,100838.03
2022-08-26T15:48:56.608Z,100826.91
2022-08-26T15:51:22.928Z,100815.28
2022-08-26T15:53:49.271Z,100794.38
2022-08-26T15:56:15.596Z,100794.56
2022-08-26T15:58:42.344Z,100787.19
2022-08-26T16:01:10.907Z,100774.34
2022-08-26T16:03:37.156Z,100770.75
2022-08-26T16:06:03.503Z,100771.25
2022-08-26T16:08:30.125Z,100781.19
2022-08-26T16:11:03.918Z,100782.88
2022-08-26T16:13:30.289Z,100787.34
2022-08-26T16:16:06.292Z,100807.72
2022-08-26T16:18:35.104Z,100814.06
2022-08-26T16:21:13.406Z,100827.78
2022-08-26T16:23:40.364Z,100832.38
2022-08-26T16:26:10.690Z,100818.88
2022-08-26T16:28:37.144Z,100804.63
2022-08-26T16:31:04.786Z,100791.81
2022-08-26T16:33:31.379Z,100790.59
2022-08-26T16:35:57.750Z,100796.25
2022-08-26T16:38:24.088Z,100790.44
2022-08-26T16:40:50.528Z,100794.38
2022-08-26T16:43:16.889Z,100811.00
2022-08-26T16:45:43.232Z,100812.00
2022-08-26T16:48:09.722Z,100822.97
2022-08-26T16:50:36.186Z,100825.53
2022-08-26T16:53:02.504Z,100818.19
2022-08-26T16:55:29.164Z,100825.72
2022-08-26T16:57:55.487Z,100820.22
2022-08-26T17:00:21.895Z,100821.94
2022-08-26T17:02:48.379Z,100819.38
2022-08-26T17:05:14.811Z,100817.50
2022-08-26T17:07:41.092Z,100826.59
2022-08-26T17:10:07.502Z,100827.44
2022-08-26T17:12:33.756Z,100826.41
2022-08-26T17:15:00.003Z,100828.81
2022-08-26T17:17:26.222Z,100829.66
2022-08-26T17:19:52.553Z,100829.66
2022-08-26T17:22:18.954Z,100828.47
2022-08-26T17:24:45.214Z,100837.53
2022-08-26T17:27:11.498Z,100837.53
2022-08-26T17:29:37.777Z,100836.50
2022-08-26T17:32:04.007Z,100838.41
2022-08-26T17:34:30.322Z,100834.78
2022-08-26T17:36:56.849Z,100842.00
2022-08-26T17:39:23.324Z,100841.13
2022-08-26T17:41:49.612Z,100833.09
2022-08-26T17:44:15.981Z,100816.66
2022-08-26T17:46:42.718Z,100814.06
2022-08-26T17:49:09.073Z,100812.38
2022-08-26T17:51:35.567Z,100812.38
2022-08-26T17:54:01.820Z,100815.28
2022-08-26T17:56:28.198Z,100810.81
2022-08-26T17:58:54.491Z,100802.78
2022-08-26T18:01:21.535Z,100812.34
2022-08-26T18:03:47.994Z,100810.97
2022-08-26T18:06:14.430Z,100804.66
2022-08-26T18:08:40.893Z,100804.84
2022-08-26T18:11:07.251Z,100810.47
2022-08-26T18:13:33.859Z,100806.88
2022-08-26T18:16:00.171Z,100808.75
2022-08-26T18:18:26.743Z,100809.94
2022-08-26T18:21:01.735Z,100809.28
2022-08-26T18:23:28.601Z,100814.75
2022-08-26T18:25:57.832Z,100807.72
2022-08-26T18:28:24.122Z,100805.50
2022-08-26T18:30:50.704Z,100801.19
2022-08-26T18:33:16.991Z,100792.13
2022-08-26T18:35:43.392Z,100805.97
2022-08-26T18:38:11.095Z,100803.41
2022-08-26T18:40:38.156Z,100797.25
2022-08-26T18:43:04.620Z,100805.63
2022-08-26T18:45:31.192Z,100796.03
2022-08-26T18:47:57.749Z,100793.66
2022-08-26T18:50:24.355Z,100786.63
2022-08-26T18:52:50.951Z,100786.44
2022-08-26T18:55:17.398Z,100785.78
2022-08-26T18:57:43.725Z,100787.81
2022-08-26T19:00:10.173Z,100792.25
2022-08-26T19:02:36.617Z,100802.19
2022-08-26T19:05:04.600Z,100792.09
2022-08-26T19:07:30.941Z,100804.75
2022-08-26T19:09:57.256Z,100797.56
2022-08-26T19:12:23.532Z,100804.59
2022-08-26T19:14:53.375Z,100810.91
2022-08-26T19:17:19.658Z,100816.41
2022-08-26T19:19:48.907Z,100823.59
2022-08-26T19:22:15.192Z,100819.13
2022-08-26T19:24:41.537Z,100832.66
2022-08-26T19:27:11.659Z,100839.84
2022-08-26T19:29:40.567Z,100837.97
2022-08-26T19:32:06.879Z,100840.69
2022-08-26T19:34:33.362Z,100853.38
2022-08-26T19:36:59.580Z,100859.03
2022-08-26T19:39:25.963Z,100864.50
2022-08-26T19:41:52.345Z,100854.56
2022-08-26T19:44:18.611Z,100855.59
2022-08-26T19:46:44.905Z,100867.56
2022-08-26T19:49:11.266Z,100874.78
2022-08-26T19:51:37.896Z,100863.81
2022-08-26T19:54:04.211Z,100858.66
2022-08-26T19:56:30.789Z,100861.22
2022-08-26T19:58:57.145Z,100857.47
2022-08-26T20:01:23.490Z,100865.69
2022-08-26T20:03:49.902Z,100860.19
2022-08-26T20:06:16.165Z,100874.06
2022-08-26T20:08:42.477Z,100871.66
2022-08-26T20:11:11.657Z,100878.31
2022-08-26T20:13:38.089Z,100877.31
2022-08-26T20:16:04.433Z,100877.47
2022-08-26T20:18:30.764Z,100891.00
2022-08-26T20:20:57.223Z,100899.22
2022-08-26T20:23:23.538Z,100912.72
2022-08-26T20:25:49.989Z,100913.75
2022-08-26T20:28:16.328Z,100909.44
2022-08-26T20:30:42.548Z,100899.38
2022-08-26T20:33:08.934Z,100902.28
2022-08-26T20:35:35.260Z,100907.94
2022-08-26T20:38:01.609Z,100904.31
2022-08-26T20:40:28.013Z,100903.47
2022-08-26T20:42:54.381Z,100901.56
2022-08-26T20:45:20.836Z,100902.47
2022-08-26T20:47:47.172Z,100894.25
2022-08-26T20:50:13.448Z,100903.31
2022-08-26T20:52:39.906Z,100907.59
2022-08-26T20:55:06.219Z,100899.22
2022-08-26T20:57:32.559Z,100912.72
2022-08-26T20:59:59.188Z,100922.66
2022-08-26T21:02:25.696Z,100926.75
2022-08-26T21:04:52.211Z,100931.34
2022-08-26T21:07:18.594Z,100925.03
2022-08-26T21:09:46.166Z,100913.41
2022-08-26T21:12:12.557Z,100914.41
2022-08-26T21:14:38.946Z,100910.66
2022-08-26T21:17:05.228Z,100905.19
2022-08-26T21:19:33.994Z,100901.25
2022-08-26T21:22:00.264Z,100899.38
2022-08-26T21:24:26.536Z,100894.06
2022-08-26T21:26:52.827Z,100900.41
2022-08-26T21:29:19.134Z,100899.38
2022-08-26T21:31:46.714Z,100887.41
2022-08-26T21:34:13.277Z,100892.00
2022-08-26T21:36:39.588Z,100894.75
2022-08-26T21:39:10.771Z,100889.28
2022-08-26T21:41:37.975Z,100888.44
2022-08-26T21:44:04.281Z,100882.41
2022-08-26T21:46:30.586Z,100887.03
2022-08-26T21:48:56.866Z,100883.47
2022-08-26T21:51:24.227Z,100876.25
2022-08-26T21:53:50.573Z,100882.75
2022-08-26T21:56:16.959Z,100883.94
2022-08-26T21:58:43.279Z,100886.84
2022-08-26T22:01:09.651Z,100890.78
2022-08-26T22:03:37.808Z,100891.81
2022-08-26T22:06:13.496Z,100864.59
2022-08-26T22:08:39.834Z,100871.25
2022-08-26T22:11:06.138Z,100874.16
2022-08-26T22:13:32.541Z,100870.72
2022-08-26T22:15:58.809Z,100860.97
2022-08-26T22:18:25.177Z,100860.09
2022-08-26T22:20:51.534Z,100851.03
2022-08-26T22:23:18.059Z,100839.56
2022-08-26T22:25:44.344Z,100841.78
2022-08-26T22:28:10.741Z,100833.75
2022-08-26T22:30:37.481Z,100834.06
2022-08-26T22:33:03.836Z,100826.88
2022-08-26T22:35:30.113Z,100825.16
2022-08-26T22:37:57.141Z,100823.47
2022-08-26T22:40:23.651Z,100815.25
2022-08-26T22:42:55.637Z,100803.44
2022-08-26T22:45:26.351Z,100803.28
2022-08-26T22:47:57.013Z,100796.94
2022-08-26T22:50:23.317Z,100791.47
2022-08-26T22:52:49.647Z,100791.47
2022-08-26T22:55:15.948Z,100786.00
2022-08-26T22:57:42.255Z,100794.22
2022-08-26T23:00:08.796Z,100807.06
2022-08-26T23:02:37.724Z,100813.38
2022-08-26T23:05:04.170Z,100818.66
2022-08-26T23:07:30.486Z,100825.88
2022-08-26T23:09:56.699Z,100823.97
2022-08-26T23:12:22.942Z,100824.81
2022-08-26T23:14:49.171Z,100814.91
2022-08-26T23:17:15.447Z,100808.56
2022-08-26T23:19:41.763Z,100809.44
2022-08-26T23:22:08.102Z,100816.09
2022-08-26T23:24:34.448Z,100804.44
2022-08-26T23:27:00.744Z,100812.16
2022-08-26T23:29:27.147Z,100821.53
2022-08-26T23:31:53.578Z,100825.13
2022-08-26T23:34:19.923Z,100824.97
2022-08-26T23:36:47.018Z,100833.19
2022-08-26T23:39:13.329Z,100834.88
2022-08-26T23:41:39.677Z,100842.06
2022-08-26T23:44:05.971Z,100840.19
2022-08-26T23:46:32.296Z,100831.97
2022-08-26T23:48:58.580Z,100840.03
2022-08-26T23:51:24.877Z,100834.53
2022-08-26T23:53:51.194Z,100839.34
2022-08-26T23:56:17.643Z,100834.88
2022-08-26T23:58:44.073Z,100837.63
